Portland — WDG2201 — position and weather

sailwx.info

Track history (hours):
 
Tides and Currents Weather Stations Pressure Air Temp Water Temp Dewpoint Dewpoint Depression Visibility Wind Speed Wind Dir Waves Ship Positions

Portland

Owner: Shaver Transportation Company, Portland, OR. More information available from US FCC via Universal Licensing System and Coast Guard Vessel Documentation Center.

Last reported at 2014-Oct-31 07:32 UTC. Time now 2014-Oct-31 20:14 UTC.
Position N 46°05' W 122°56'.

Length 27 m; draft 4 m.

Type: Towing. MMSI: 367315814.

Date/timePositionNaut miles runAvg speedWind from/ knotsBaromVisibWave heightAir tempDewpointWater temp
2014-Oct-31 07:32N 46°05' W 122°56'0 0.0
2014-Oct-31 06:33N 46°05' W 122°56'0 0.0
2014-Oct-31 05:32N 46°05' W 122°56'0 0.0
2014-Oct-31 04:29N 46°05' W 122°56'0 0.0
2014-Oct-31 03:26N 46°05' W 122°56'0 0.0
2014-Oct-31 02:32N 46°05' W 122°56'0 0.0
2014-Oct-31 01:29N 46°05' W 122°56'0 0.0
2014-Oct-31 00:26N 46°05' W 122°56'2 1.8
2014-Oct-30 23:30N 46°07' W 122°58'0 0.4
2014-Oct-30 22:34N 46°06' W 122°58'1 1.2
2014-Oct-30 21:26N 46°05' W 122°56'0 0.0
2014-Oct-30 20:32N 46°05' W 122°56'0 0.0
2014-Oct-30 19:32N 46°05' W 122°56'0 0.0
2014-Oct-30 18:32N 46°05' W 122°56'0 0.0
2014-Oct-30 17:32N 46°05' W 122°56'0 0.0
2014-Oct-30 16:32N 46°05' W 122°56'0 0.0
2014-Oct-30 15:32N 46°05' W 122°56'0 0.0
2014-Oct-30 14:32N 46°05' W 122°56'0 0.0
2014-Oct-30 13:32N 46°05' W 122°56'0 0.0
2014-Oct-30 12:32N 46°05' W 122°56'0 0.0
2014-Oct-30 11:32N 46°05' W 122°56'0 0.0
2014-Oct-30 10:32N 46°05' W 122°56'0 0.0
2014-Oct-30 09:32N 46°05' W 122°56'0 0.0
2014-Oct-30 08:29N 46°05' W 122°56'0 0.0
2014-Oct-30 07:32N 46°05' W 122°56'0 0.0
2014-Oct-30 06:29N 46°05' W 122°56'0 0.0
2014-Oct-30 05:29N 46°05' W 122°56'0 0.0
2014-Oct-30 04:32N 46°05' W 122°56'0 0.0
2014-Oct-30 03:32N 46°05' W 122°56'0 0.0
2014-Oct-30 02:29N 46°05' W 122°56'0 0.0
2014-Oct-30 01:29N 46°05' W 122°56'0 0.0
2014-Oct-30 00:26N 46°05' W 122°56'0 0.0
2014-Oct-29 23:26N 46°05' W 122°56'0 0.0
2014-Oct-29 22:32N 46°05' W 122°56'0 0.0
2014-Oct-29 21:29N 46°05' W 122°56'2 1.8
2014-Oct-29 20:30N 46°07' W 122°58'2 1.8
2014-Oct-29 19:31N 46°05' W 122°56'0 0.0
2014-Oct-29 18:31N 46°05' W 122°56'0 0.0
2014-Oct-29 17:22N 46°05' W 122°56'0 0.0
2014-Oct-29 16:25N 46°05' W 122°56'0 0.0
2014-Oct-29 15:28N 46°05' W 122°56'0 0.0
2014-Oct-29 14:32N 46°05' W 122°56'0 0.0
2014-Oct-29 13:32N 46°05' W 122°56'0 0.0
2014-Oct-29 12:32N 46°05' W 122°56'0 0.0
2014-Oct-29 11:32N 46°05' W 122°56'0 0.0
2014-Oct-29 10:32N 46°05' W 122°56'1 1.0
2014-Oct-29 09:32N 46°06' W 122°57'1 1.0
2014-Oct-29 08:32N 46°05' W 122°56'0 0.0
2014-Oct-29 07:29N 46°05' W 122°56'0 0.0
2014-Oct-29 06:29N 46°05' W 122°56'0 0.0
2014-Oct-29 05:32N 46°05' W 122°56'0 0.0
2014-Oct-29 04:32N 46°05' W 122°56'1 0.6
2014-Oct-29 03:33N 46°06' W 122°56'4 3.8
2014-Oct-29 02:33N 46°03' W 122°53'1 0.6
2014-Oct-29 01:32N 46°03' W 122°53'0 0.0
2014-Oct-29 00:32N 46°03' W 122°53'5 4.9
2014-Oct-28 23:33N 45°58' W 122°50'1212.0
2014-Oct-28 22:33N 45°47' W 122°46'8 7.0
2014-Oct-28 21:26N 45°39' W 122°45'2 2.3
2014-Oct-28 20:29N 45°38' W 122°42'2 2.4
2014-Oct-28 19:31N 45°39' W 122°45'0 0.2
2014-Oct-28 18:33N 45°39' W 122°45'0 0.4
2014-Oct-28 17:33N 45°38' W 122°45'1 0.6
2014-Oct-28 16:32N 45°39' W 122°45'0 0.0
2014-Oct-28 15:29N 45°39' W 122°45'0 0.0
2014-Oct-28 14:32N 45°39' W 122°45'0 0.0
2014-Oct-28 13:29N 45°39' W 122°45'0 0.0
2014-Oct-28 12:32N 45°39' W 122°45'0 0.0
2014-Oct-28 11:32N 45°39' W 122°45'0 0.0
2014-Oct-28 10:26N 45°39' W 122°45'0 0.0
2014-Oct-28 09:32N 45°39' W 122°45'0 0.0
2014-Oct-28 08:26N 45°39' W 122°45'0 0.0
2014-Oct-28 07:32N 45°39' W 122°45'0 0.0
2014-Oct-28 06:32N 45°39' W 122°45'0 0.0
2014-Oct-28 05:32N 45°39' W 122°45'0 0.0
2014-Oct-28 04:26N 45°39' W 122°45'0 0.0
2014-Oct-28 03:26N 45°39' W 122°45'0 0.0
2014-Oct-28 02:32N 45°39' W 122°45'0 0.0
2014-Oct-28 01:33N 45°39' W 122°45'0 0.0
2014-Oct-28 00:34N 45°39' W 122°45'8 8.0
2014-Oct-27 23:34N 45°47' W 122°46'9 9.0
2014-Oct-27 22:33N 45°56' W 122°48'6 6.2
2014-Oct-27 21:34N 46°01' W 122°52'6 5.7
2014-Oct-27 20:33N 45°56' W 122°48'1211.8
2014-Oct-27 19:34N 45°44' W 122°46'7 6.9
2014-Oct-27 18:34N 45°38' W 122°42'2 2.2
2014-Oct-27 17:33N 45°39' W 122°45'0 0.0
2014-Oct-27 16:33N 45°39' W 122°45'0 0.0
2014-Oct-27 15:34N 45°39' W 122°45'0 0.0
2014-Oct-27 14:34N 45°39' W 122°45'3 2.7
2014-Oct-27 13:33N 45°41' W 122°46'9 8.5
2014-Oct-27 12:33N 45°50' W 122°48'7 7.1
2014-Oct-27 11:34N 45°57' W 122°49'8 7.9
2014-Oct-27 10:33N 46°04' W 122°53'2 4.3
2014-Oct-27 10:04N 46°02' W 122°53'0 0.6
2014-Oct-27 09:34N 46°02' W 122°52'0 0.1
2014-Oct-27 09:14N 46°01' W 122°52'0 0.4
2014-Oct-27 08:33N 46°02' W 122°52'0 0.0
2014-Oct-27 08:24N 46°02' W 122°52'5 5.4
2014-Oct-27 07:34N 46°05' W 122°56'0 0.0
2014-Oct-27 07:09N 46°05' W 122°56'0 0.0
2014-Oct-27 06:33N 46°05' W 122°56'0 0.0
2014-Oct-27 06:24N 46°05' W 122°56'0 0.0
2014-Oct-27 05:33N 46°05' W 122°56'0 0.0
2014-Oct-27 04:34N 46°05' W 122°56'1 0.5
2014-Oct-27 03:33N 46°06' W 122°56'1 0.7
2014-Oct-27 02:33N 46°06' W 122°57'1 1.1
2014-Oct-27 01:37N 46°05' W 122°56'0 0.0
2014-Oct-27 01:34N 46°05' W 122°56'0 0.0
2014-Oct-27 00:33N 46°05' W 122°56'0 0.0
2014-Oct-26 23:57N 46°05' W 122°56'0 0.0
2014-Oct-26 23:33N 46°05' W 122°56'0 0.0
2014-Oct-26 22:38N 46°05' W 122°56'0 0.0
2014-Oct-26 22:33N 46°05' W 122°56'0 0.1
2014-Oct-26 22:28N 46°05' W 122°56'0 0.0
2014-Oct-26 21:33N 46°05' W 122°56'0 0.0
2014-Oct-26 20:47N 46°05' W 122°56'0 0.0
2014-Oct-26 20:34N 46°05' W 122°56'9 8.5
2014-Oct-26 19:33N 45°58' W 122°50'1110.5
2014-Oct-26 18:33N 45°48' W 122°47'9 9.2
2014-Oct-26 17:33N 45°39' W 122°45'0 0.0
2014-Oct-26 16:34N 45°39' W 122°45'0 0.0
2014-Oct-26 15:33N 45°39' W 122°45'0 0.0
2014-Oct-26 14:33N 45°39' W 122°45'0 0.0
2014-Oct-26 13:33N 45°39' W 122°45'0 0.0
2014-Oct-26 12:34N 45°39' W 122°45'0 0.0
2014-Oct-26 11:34N 45°39' W 122°45'0 0.0
2014-Oct-26 10:33N 45°39' W 122°45'0 0.0
2014-Oct-26 09:33N 45°39' W 122°45'0 0.0
2014-Oct-26 08:33N 45°39' W 122°45'0 0.0
2014-Oct-26 07:33N 45°39' W 122°45'0 0.0
2014-Oct-26 06:33N 45°39' W 122°45'0 0.0
2014-Oct-26 05:33N 45°39' W 122°45'0 0.0
2014-Oct-26 04:34N 45°39' W 122°45'0 0.0
2014-Oct-26 03:34N 45°39' W 122°45'0 0.0
2014-Oct-26 02:33N 45°39' W 122°45'0 0.0
2014-Oct-26 01:34N 45°39' W 122°45'0 0.0
2014-Oct-26 00:33N 45°39' W 122°45'0 0.0
2014-Oct-25 23:33N 45°39' W 122°45'0 0.0
2014-Oct-25 22:33N 45°39' W 122°45'0 0.0
2014-Oct-25 21:33N 45°39' W 122°45'0 0.0
2014-Oct-25 20:33N 45°39' W 122°45'0 0.4
2014-Oct-25 19:34N 45°39' W 122°45'1 0.1
2014-Oct-25 10:13N 45°39' W 122°44'24 2.3
2014-Oct-24 23:41N 46°02' W 122°52'0 0.0
2014-Oct-24 23:31N 46°02' W 122°52'0 0.2
2014-Oct-24 22:22N 46°02' W 122°53'25 0.7
2014-Oct-23 10:33N 45°38' W 122°42'0 0.1
2014-Oct-23 09:29N 45°38' W 122°42'1 0.8
2014-Oct-23 08:30N 45°38' W 122°43'0 0.0
2014-Oct-22 19:33N 45°38' W 122°43'0 0.0
2014-Oct-22 01:03N 45°38' W 122°43'1 2.0
2014-Oct-22 00:33N 45°38' W 122°42'  
Track history (hours):
 
Tides and Currents Weather Stations Pressure Air Temp Water Temp Dewpoint Dewpoint Depression Visibility Wind Speed Wind Dir Waves Ship Positions

Portland

Owner: Shaver Transportation Company, Portland, OR. More information available from US FCC via Universal Licensing System and Coast Guard Vessel Documentation Center.

Last reported at 2014-Oct-31 07:32 UTC. Time now 2014-Oct-31 20:14 UTC.
Position N 46°05' W 122°56'.

Length 27 m; draft 4 m.

Type: Towing. MMSI: 367315814.

Date/timePositionNaut miles runAvg speedWind from/ knotsBaromVisibWave heightAir tempDewpointWater temp
2014-Oct-31 07:32N 46°05' W 122°56'0 0.0
2014-Oct-31 06:33N 46°05' W 122°56'0 0.0
2014-Oct-31 05:32N 46°05' W 122°56'0 0.0
2014-Oct-31 04:29N 46°05' W 122°56'0 0.0
2014-Oct-31 03:26N 46°05' W 122°56'0 0.0
2014-Oct-31 02:32N 46°05' W 122°56'0 0.0
2014-Oct-31 01:29N 46°05' W 122°56'0 0.0
2014-Oct-31 00:26N 46°05' W 122°56'2 1.8
2014-Oct-30 23:30N 46°07' W 122°58'0 0.4
2014-Oct-30 22:34N 46°06' W 122°58'1 1.2
2014-Oct-30 21:26N 46°05' W 122°56'0 0.0
2014-Oct-30 20:32N 46°05' W 122°56'0 0.0
2014-Oct-30 19:32N 46°05' W 122°56'0 0.0
2014-Oct-30 18:32N 46°05' W 122°56'0 0.0
2014-Oct-30 17:32N 46°05' W 122°56'0 0.0
2014-Oct-30 16:32N 46°05' W 122°56'0 0.0
2014-Oct-30 15:32N 46°05' W 122°56'0 0.0
2014-Oct-30 14:32N 46°05' W 122°56'0 0.0
2014-Oct-30 13:32N 46°05' W 122°56'0 0.0
2014-Oct-30 12:32N 46°05' W 122°56'0 0.0
2014-Oct-30 11:32N 46°05' W 122°56'0 0.0
2014-Oct-30 10:32N 46°05' W 122°56'0 0.0
2014-Oct-30 09:32N 46°05' W 122°56'0 0.0
2014-Oct-30 08:29N 46°05' W 122°56'0 0.0
2014-Oct-30 07:32N 46°05' W 122°56'0 0.0
2014-Oct-30 06:29N 46°05' W 122°56'0 0.0
2014-Oct-30 05:29N 46°05' W 122°56'0 0.0
2014-Oct-30 04:32N 46°05' W 122°56'0 0.0
2014-Oct-30 03:32N 46°05' W 122°56'0 0.0
2014-Oct-30 02:29N 46°05' W 122°56'0 0.0
2014-Oct-30 01:29N 46°05' W 122°56'0 0.0
2014-Oct-30 00:26N 46°05' W 122°56'0 0.0
2014-Oct-29 23:26N 46°05' W 122°56'0 0.0
2014-Oct-29 22:32N 46°05' W 122°56'0 0.0
2014-Oct-29 21:29N 46°05' W 122°56'2 1.8
2014-Oct-29 20:30N 46°07' W 122°58'2 1.8
2014-Oct-29 19:31N 46°05' W 122°56'0 0.0
2014-Oct-29 18:31N 46°05' W 122°56'0 0.0
2014-Oct-29 17:22N 46°05' W 122°56'0 0.0
2014-Oct-29 16:25N 46°05' W 122°56'0 0.0
2014-Oct-29 15:28N 46°05' W 122°56'0 0.0
2014-Oct-29 14:32N 46°05' W 122°56'0 0.0
2014-Oct-29 13:32N 46°05' W 122°56'0 0.0
2014-Oct-29 12:32N 46°05' W 122°56'0 0.0
2014-Oct-29 11:32N 46°05' W 122°56'0 0.0
2014-Oct-29 10:32N 46°05' W 122°56'1 1.0
2014-Oct-29 09:32N 46°06' W 122°57'1 1.0
2014-Oct-29 08:32N 46°05' W 122°56'0 0.0
2014-Oct-29 07:29N 46°05' W 122°56'0 0.0
2014-Oct-29 06:29N 46°05' W 122°56'0 0.0
2014-Oct-29 05:32N 46°05' W 122°56'0 0.0
2014-Oct-29 04:32N 46°05' W 122°56'1 0.6
2014-Oct-29 03:33N 46°06' W 122°56'4 3.8
2014-Oct-29 02:33N 46°03' W 122°53'1 0.6
2014-Oct-29 01:32N 46°03' W 122°53'0 0.0
2014-Oct-29 00:32N 46°03' W 122°53'5 4.9
2014-Oct-28 23:33N 45°58' W 122°50'1212.0
2014-Oct-28 22:33N 45°47' W 122°46'8 7.0
2014-Oct-28 21:26N 45°39' W 122°45'2 2.3
2014-Oct-28 20:29N 45°38' W 122°42'2 2.4
2014-Oct-28 19:31N 45°39' W 122°45'0 0.2
2014-Oct-28 18:33N 45°39' W 122°45'0 0.4
2014-Oct-28 17:33N 45°38' W 122°45'1 0.6
2014-Oct-28 16:32N 45°39' W 122°45'0 0.0
2014-Oct-28 15:29N 45°39' W 122°45'0 0.0
2014-Oct-28 14:32N 45°39' W 122°45'0 0.0
2014-Oct-28 13:29N 45°39' W 122°45'0 0.0
2014-Oct-28 12:32N 45°39' W 122°45'0 0.0
2014-Oct-28 11:32N 45°39' W 122°45'0 0.0
2014-Oct-28 10:26N 45°39' W 122°45'0 0.0
2014-Oct-28 09:32N 45°39' W 122°45'0 0.0
2014-Oct-28 08:26N 45°39' W 122°45'0 0.0
2014-Oct-28 07:32N 45°39' W 122°45'0 0.0
2014-Oct-28 06:32N 45°39' W 122°45'0 0.0
2014-Oct-28 05:32N 45°39' W 122°45'0 0.0
2014-Oct-28 04:26N 45°39' W 122°45'0 0.0
2014-Oct-28 03:26N 45°39' W 122°45'0 0.0
2014-Oct-28 02:32N 45°39' W 122°45'0 0.0
2014-Oct-28 01:33N 45°39' W 122°45'0 0.0
2014-Oct-28 00:34N 45°39' W 122°45'8 8.0
2014-Oct-27 23:34N 45°47' W 122°46'9 9.0
2014-Oct-27 22:33N 45°56' W 122°48'6 6.2
2014-Oct-27 21:34N 46°01' W 122°52'6 5.7
2014-Oct-27 20:33N 45°56' W 122°48'1211.8
2014-Oct-27 19:34N 45°44' W 122°46'7 6.9
2014-Oct-27 18:34N 45°38' W 122°42'2 2.2
2014-Oct-27 17:33N 45°39' W 122°45'0 0.0
2014-Oct-27 16:33N 45°39' W 122°45'0 0.0
2014-Oct-27 15:34N 45°39' W 122°45'0 0.0
2014-Oct-27 14:34N 45°39' W 122°45'3 2.7
2014-Oct-27 13:33N 45°41' W 122°46'9 8.5
2014-Oct-27 12:33N 45°50' W 122°48'7 7.1
2014-Oct-27 11:34N 45°57' W 122°49'8 7.9
2014-Oct-27 10:33N 46°04' W 122°53'2 4.3
2014-Oct-27 10:04N 46°02' W 122°53'0 0.6
2014-Oct-27 09:34N 46°02' W 122°52'0 0.1
2014-Oct-27 09:14N 46°01' W 122°52'0 0.4
2014-Oct-27 08:33N 46°02' W 122°52'0 0.0
2014-Oct-27 08:24N 46°02' W 122°52'5 5.4
2014-Oct-27 07:34N 46°05' W 122°56'0 0.0
2014-Oct-27 07:09N 46°05' W 122°56'0 0.0
2014-Oct-27 06:33N 46°05' W 122°56'0 0.0
2014-Oct-27 06:24N 46°05' W 122°56'0 0.0
2014-Oct-27 05:33N 46°05' W 122°56'0 0.0
2014-Oct-27 04:34N 46°05' W 122°56'1 0.5
2014-Oct-27 03:33N 46°06' W 122°56'1 0.7
2014-Oct-27 02:33N 46°06' W 122°57'1 1.1
2014-Oct-27 01:37N 46°05' W 122°56'0 0.0
2014-Oct-27 01:34N 46°05' W 122°56'0 0.0
2014-Oct-27 00:33N 46°05' W 122°56'0 0.0
2014-Oct-26 23:57N 46°05' W 122°56'0 0.0
2014-Oct-26 23:33N 46°05' W 122°56'0 0.0
2014-Oct-26 22:38N 46°05' W 122°56'0 0.0
2014-Oct-26 22:33N 46°05' W 122°56'0 0.1
2014-Oct-26 22:28N 46°05' W 122°56'0 0.0
2014-Oct-26 21:33N 46°05' W 122°56'0 0.0
2014-Oct-26 20:47N 46°05' W 122°56'0 0.0
2014-Oct-26 20:34N 46°05' W 122°56'9 8.5
2014-Oct-26 19:33N 45°58' W 122°50'1110.5
2014-Oct-26 18:33N 45°48' W 122°47'9 9.2
2014-Oct-26 17:33N 45°39' W 122°45'0 0.0
2014-Oct-26 16:34N 45°39' W 122°45'0 0.0
2014-Oct-26 15:33N 45°39' W 122°45'0 0.0
2014-Oct-26 14:33N 45°39' W 122°45'0 0.0
2014-Oct-26 13:33N 45°39' W 122°45'0 0.0
2014-Oct-26 12:34N 45°39' W 122°45'0 0.0
2014-Oct-26 11:34N 45°39' W 122°45'0 0.0
2014-Oct-26 10:33N 45°39' W 122°45'0 0.0
2014-Oct-26 09:33N 45°39' W 122°45'0 0.0
2014-Oct-26 08:33N 45°39' W 122°45'0 0.0
2014-Oct-26 07:33N 45°39' W 122°45'0 0.0
2014-Oct-26 06:33N 45°39' W 122°45'0 0.0
2014-Oct-26 05:33N 45°39' W 122°45'0 0.0
2014-Oct-26 04:34N 45°39' W 122°45'0 0.0
2014-Oct-26 03:34N 45°39' W 122°45'0 0.0
2014-Oct-26 02:33N 45°39' W 122°45'0 0.0
2014-Oct-26 01:34N 45°39' W 122°45'0 0.0
2014-Oct-26 00:33N 45°39' W 122°45'0 0.0
2014-Oct-25 23:33N 45°39' W 122°45'0 0.0
2014-Oct-25 22:33N 45°39' W 122°45'0 0.0
2014-Oct-25 21:33N 45°39' W 122°45'0 0.0
2014-Oct-25 20:33N 45°39' W 122°45'0 0.4
2014-Oct-25 19:34N 45°39' W 122°45'1 0.1
2014-Oct-25 10:13N 45°39' W 122°44'24 2.3
2014-Oct-24 23:41N 46°02' W 122°52'0 0.0
2014-Oct-24 23:31N 46°02' W 122°52'0 0.2
2014-Oct-24 22:22N 46°02' W 122°53'25 0.7
2014-Oct-23 10:33N 45°38' W 122°42'0 0.1
2014-Oct-23 09:29N 45°38' W 122°42'1 0.8
2014-Oct-23 08:30N 45°38' W 122°43'0 0.0
2014-Oct-22 19:33N 45°38' W 122°43'0 0.0
2014-Oct-22 01:03N 45°38' W 122°43'1 2.0
2014-Oct-22 00:33N 45°38' W 122°42'  

Dump ship's entire track history